West Texas City, Texas
Current Conditions -  °F | °C
As of 9:52 AM on Saturday 20 Dec 2014 (Local Time) from KGLS Reporting Station
Overcast Overcast  
Wind Chill: 53°   Ceiling: 900
Heat Index: 53°   Visibility: 10mi
Dew Point: 51°   Wind: 14mph
Humidity: 93%   Direction: 10°N
Pressure: 30.21"   Gusts: NA
Location:  29.4192°N, 94.9833°W
Report Text: KGLS 201552Z 01012KT 10SM OVC009 12/11 A3021 RMK AO1 CIG 007V013 SLP228 T01170106
Loading
Personal Weather Stations






























Interactive Weather Map New forecast layout! Learn more

10-Day Weather Forecast

Advertisements
Track Severe Weather on mobile